Vilanova de Sau





Hora UTC 21:25
Temperatura 7.3 ºC
Humitat 97.4 %
Pressió 1019.2 hPa
Pluja 0.1 mm
Velocitat vent 0.5 km/h
Direcció vent NNE
Radiació solar 0.0 W/m²
Fuel 105.4 %

Dades diàries 2020-01-29



Hora UTC (hivern +1h; estiu +2h)
Temperatura (ºC) Humitat (%) Pressió (hPa) Velocitat vent (km/h) Precipitació (mm) Fuel (%) Radiació solar (W/m²)
Hora UTC Aire Humitat Pressió Vel. Dir. Vel. Max Dir. Intent. màx 5 min. Fuel Rad. Sol.
00:05 3.3 99.8 1016.9 0.0 NNE 0.0 SW 0.0 119.1 0.0
00:10 3.2 99.8 1016.8 0.6 WSW 3.4 SW 0.0 119.5 0.0
00:15 3.2 99.9 1016.8 0.0 NNE 0.0 SW 0.0 120.0 0.0
00:20 3.1 99.8 1016.9 0.0 NNE 0.0 SW 0.0 120.5 0.0
00:25 3.1 99.8 1016.8 0.0 NNE 0.0 SW 0.0 120.9 0.0
00:30 3.0 99.8 1016.9 0.0 NNE 0.0 SW 0.0 121.3 0.0
00:35 3.0 99.9 1016.9 0.0 NNE 0.0 SW 0.0 121.9 0.0
00:40 3.1 100.0 1016.9 0.0 NNE 0.0 WSW 0.0 122.5 0.0
00:45 3.0 99.9 1016.8 0.0 NNE 0.0 WSW 0.0 122.9 0.0
00:50 3.1 100.0 1016.8 0.0 NNE 0.0 WSW 0.0 123.5 0.0
00:55 2.9 99.8 1016.9 0.0 NNE 0.0 WSW 0.0 123.8 0.0
01:00 2.9 99.9 1016.9 0.0 NNE 0.0 WSW 0.0 124.3 0.0
01:05 2.8 99.9 1017.0 0.0 NNE 0.0 WSW 0.0 124.7 0.0
01:10 2.9 100.0 1016.9 0.0 NNE 0.0 WSW 0.0 125.3 0.0
01:15 3.0 100.0 1016.9 0.0 NNE 0.0 WSW 0.0 125.7 0.0
01:20 2.7 99.8 1017.0 0.0 NNE 0.0 W 0.0 126.0 0.0
01:25 2.7 99.9 1017.0 0.0 NNE 0.0 NE 0.0 126.5 0.0
01:30 2.7 99.9 1017.0 0.0 NNE 0.0 W 0.0 127.0 0.0
01:35 2.6 99.9 1016.9 0.0 NNE 0.0 SW 0.0 127.5 0.0
01:40 2.6 100.0 1016.9 0.0 NNE 0.0 SW 0.0 128.1 0.0
01:45 2.6 100.0 1016.9 0.0 NNE 0.0 WSW 0.0 128.7 0.0
01:50 2.7 100.0 1016.9 0.0 NNE 0.0 WSW 0.0 129.4 0.0
01:55 2.7 100.0 1016.9 0.0 NNE 0.0 SW 0.0 129.9 0.0
02:00 2.7 100.0 1016.9 0.0 NNE 0.0 WSW 0.0 130.5 0.0
02:05 2.7 100.0 1016.9 0.0 NNE 0.0 SW 0.0 131.0 0.0
02:10 2.6 100.0 1016.9 0.0 NNE 0.0 WSW 0.0 131.4 0.0
02:15 2.6 100.0 1017.0 0.0 NNE 0.0 SW 0.0 131.9 0.0
02:20 2.7 100.0 1016.9 0.0 NNE 0.0 WSW 0.0 132.4 0.0
02:25 2.6 100.0 1016.8 0.0 NNE 0.0 WSW 0.0 132.8 0.0
02:30 2.6 100.0 1016.8 0.0 NNE 0.0 SW 0.0 133.2 0.0
02:35 2.6 100.0 1016.7 0.0 NNE 0.0 SW 0.0 133.7 0.0
02:40 2.6 100.0 1016.6 0.0 NNE 0.0 SW 0.0 134.3 0.0
02:45 2.6 100.0 1016.6 0.0 NNE 0.0 SW 0.0 134.9 0.0
02:50 2.6 100.0 1016.7 0.0 NNE 0.0 SW 0.0 135.5 0.0
02:55 2.7 100.0 1016.7 0.0 NNE 0.0 SW 0.0 136.1 0.0
03:00 2.8 100.0 1016.7 1.4 SW 6.1 SSW 0.0 136.7 0.0
03:05 3.0 100.0 1016.6 3.6 SW 6.1 SW 0.0 137.4 0.0
03:10 3.0 100.0 1016.6 0.2 WSW 3.4 SW 0.0 137.9 0.0
03:15 2.7 99.9 1016.7 0.2 NE 6.1 NE 0.0 138.1 0.0
03:20 2.6 99.9 1016.8 0.0 NNE 0.0 NNE 0.0 138.4 0.0
03:25 2.4 99.8 1016.8 0.0 NNE 0.0 NNE 0.0 138.7 0.0
03:30 2.2 99.9 1016.7 0.0 NNE 0.0 NNE 0.0 139.1 0.0
03:35 1.7 99.4 1016.7 0.0 NNE 0.0 NNE 0.0 139.2 0.0
03:40 1.6 99.8 1016.7 0.0 NNE 0.0 NNE 0.0 139.6 0.0
03:45 1.6 100.0 1016.8 0.0 NNE 0.0 NNE 0.0 140.0 0.0
03:50 1.5 100.0 1016.9 0.0 NNE 0.0 NNE 0.0 140.4 0.0
03:55 1.5 100.0 1016.9 0.0 NNE 0.0 NNE 0.0 140.8 0.0
04:00 1.5 100.0 1016.9 0.0 NNE 0.0 NNE 0.0 141.3 0.0
04:05 1.6 100.0 1016.9 0.0 NNE 0.0 WSW 0.0 141.8 0.0
04:10 1.9 100.0 1016.9 0.0 NNE 0.0 SW 0.0 142.5 0.0
04:15 2.0 100.0 1016.9 0.0 NNE 0.0 WSW 0.0 142.9 0.0
04:20 1.9 100.0 1016.9 0.0 NNE 0.0 WSW 0.0 143.2 0.0
04:25 1.9 100.0 1017.0 0.0 NNE 0.0 SW 0.0 143.6 0.0
04:30 1.9 100.0 1017.0 0.0 NNE 0.0 SW 0.0 144.1 0.0
04:35 1.9 100.0 1017.0 0.0 NNE 0.0 WSW 0.0 144.5 0.0
04:40 1.9 100.0 1017.1 0.0 NNE 0.0 WSW 0.0 144.9 0.0
04:45 1.9 100.0 1017.1 0.0 NNE 0.0 WSW 0.0 145.3 0.0
04:50 1.8 100.0 1017.1 0.0 NNE 0.0 WSW 0.0 145.9 0.0
04:55 1.8 100.0 1017.0 0.0 NNE 0.0 WSW 0.0 146.4 0.0
05:00 1.9 100.0 1017.0 0.0 NNE 0.0 WSW 0.0 146.9 0.0
05:05 1.9 100.0 1017.1 0.0 NNE 0.0 WSW 0.0 147.3 0.0
05:10 1.8 100.0 1017.1 0.0 NNE 0.0 WSW 0.0 147.7 0.0
05:15 1.8 100.0 1017.2 0.0 NNE 0.0 WSW 0.0 148.2 0.0
05:20 1.7 100.0 1017.2 0.0 NNE 0.0 WSW 0.0 148.5 0.0
05:25 1.6 100.0 1017.2 0.0 NNE 0.0 WSW 0.0 148.8 0.0
05:30 1.5 100.0 1017.1 0.0 NNE 0.0 WSW 0.0 149.4 0.0
05:35 1.5 100.0 1017.3 0.0 NNE 0.0 WSW 0.0 150.2 0.0
05:40 1.6 100.0 1017.5 0.0 NNE 0.0 N 0.0 150.7 0.0
05:45 1.4 100.0 1017.5 0.0 NNE 0.0 W 0.0 151.0 0.0
05:50 1.2 100.0 1017.4 0.0 NNE 0.0 W 0.0 151.2 0.0
05:55 1.1 100.0 1017.5 0.0 NNE 0.0 W 0.0 151.5 0.0
06:00 1.1 100.0 1017.5 0.0 NNE 0.0 W 0.0 151.8 0.0
06:05 1.1 100.0 1017.6 0.0 NNE 0.0 SE 0.0 152.2 0.0
06:10 1.0 100.0 1017.6 0.0 NNE 0.0 ESE 0.0 152.5 0.0
06:15 1.1 100.0 1017.5 0.0 NNE 0.0 SW 0.0 153.0 0.0
06:20 1.2 100.0 1017.5 0.0 NNE 0.0 SW 0.0 153.5 0.0
06:25 1.1 100.0 1017.7 0.0 NNE 0.0 SW 0.0 154.0 0.0
06:30 1.1 100.0 1017.9 0.0 NNE 0.0 W 0.0 154.4 0.0
06:35 1.1 100.0 1017.9 0.0 NNE 0.0 NW 0.0 154.7 0.0
06:40 1.0 100.0 1017.9 0.0 NNE 0.0 ENE 0.0 154.9 0.0
06:45 0.7 99.9 1017.9 0.0 NNE 0.0 NE 0.0 155.0 0.0
06:50 0.7 100.0 1018.0 0.0 NNE 0.0 E 0.0 155.4 0.0
06:55 0.9 100.0 1018.1 0.0 NNE 0.0 SW 0.0 155.9 0.2
07:00 1.0 100.0 1018.1 0.0 NNE 0.0 SW 0.0 156.3 1.0
07:05 1.1 100.0 1018.1 0.0 NNE 0.0 SW 0.0 156.6 2.8
07:10 1.1 100.0 1018.2 0.0 NNE 0.0 SSW 0.0 156.9 3.5
07:15 1.2 100.0 1018.2 0.0 NNE 0.0 SSW 0.0 157.2 5.3
07:20 1.3 100.0 1018.3 0.0 NNE 0.0 SSW 0.0 157.5 7.8
07:25 1.3 100.0 1018.4 0.0 NNE 0.0 S 0.0 157.7 12.0
07:30 1.3 100.0 1018.5 0.0 NNE 0.0 SE 0.0 157.9 21.3
07:35 1.4 100.0 1018.6 0.0 NNE 0.0 SE 0.0 158.2 30.3
07:40 1.5 100.0 1018.6 0.0 NNE 0.0 SE 0.0 158.4 33.0
07:45 1.6 100.0 1018.7 0.0 NNE 0.0 SE 0.1 158.6 34.8
07:50 1.6 100.0 1018.7 0.0 NNE 0.0 SE 0.0 158.8 35.3
07:55 1.6 100.0 1018.8 0.0 NNE 0.0 SSE 0.0 159.0 34.9
08:00 1.7 100.0 1018.9 0.0 NNE 0.0 SSE 0.0 159.2 23.6
08:05 1.8 100.0 1019.0 0.0 NNE 0.0 SSE 0.0 159.5 27.6
08:10 1.9 100.0 1019.0 0.0 NNE 0.0 E 0.0 159.8 36.2
08:15 2.1 100.0 1019.0 0.0 NNE 0.0 E 0.0 159.9 50.2
08:20 2.3 100.0 1018.9 0.0 NNE 0.0 SSW 0.0 160.2 70.3
08:25 2.6 100.0 1018.9 0.0 NNE 0.0 SW 0.0 160.3 89.8
08:30 2.8 100.0 1019.0 0.0 NNE 0.0 S 0.0 160.2 99.6
08:35 3.0 100.0 1019.0 0.0 NNE 0.0 SSW 0.0 160.0 56.0
08:40 3.2 100.0 1019.0 2.5 SSW 6.1 SSW 0.0 159.8 58.6
08:45 3.3 100.0 1019.1 0.5 SSW 6.1 S 0.0 159.9 68.6
08:50 3.5 100.0 1019.2 0.0 NNE 0.0 SSW 0.0 159.9 87.5
08:55 3.8 100.0 1019.3 0.0 NNE 0.0 SSW 0.0 159.9 148.9
09:00 4.1 100.0 1019.2 0.0 ENE 3.4 ENE 0.0 159.8 115.2
09:05 4.2 100.0 1019.3 0.1 E 3.4 E 0.0 159.1 85.3
09:10 4.2 100.0 1019.3 0.0 NNE 0.0 ESE 0.0 159.0 75.1
09:15 4.3 100.0 1019.4 0.0 NNE 0.0 E 0.0 159.0 114.9
09:20 4.5 100.0 1019.4 0.0 NNE 0.0 E 0.0 158.6 132.3
09:25 4.6 100.0 1019.4 0.0 NNE 0.0 ESE 0.0 158.3 136.7
09:30 4.6 99.9 1019.5 2.5 ENE 8.8 ENE 0.0 157.5 69.7
09:35 4.5 100.0 1019.6 0.1 ENE 3.4 E 0.0 157.1 70.2
09:40 4.6 100.0 1019.6 0.7 ESE 3.4 E 0.0 156.9 70.8
09:45 4.6 100.0 1019.6 0.2 S 6.1 S 0.0 156.7 83.2
09:50 4.6 100.0 1019.7 0.0 NNE 0.0 SE 0.0 156.4 90.2
09:55 4.7 99.9 1019.7 0.0 NNE 0.0 ESE 0.0 156.0 108.0
10:00 4.7 99.9 1019.7 0.0 NNE 0.0 ESE 0.0 155.6 109.1
10:05 4.8 99.9 1019.7 0.3 ESE 3.4 ESE 0.0 155.2 160.0
10:10 4.9 99.9 1019.7 0.0 NNE 0.0 SE 0.0 154.9 215.6
10:15 5.2 99.8 1019.7 0.0 NNE 0.0 NNW 0.0 154.4 257.4
10:20 5.4 99.5 1019.7 0.0 NNE 0.0 N 0.0 153.4 140.6
10:25 5.4 99.4 1019.7 0.0 NNE 0.0 N 0.0 152.9 189.9
10:30 5.6 99.4 1019.8 0.0 NNE 0.0 NE 0.0 152.6 167.4
10:35 5.7 99.4 1019.8 0.9 ENE 6.1 ENE 0.0 152.3 266.2
10:40 5.7 99.2 1019.7 2.0 E 6.1 ENE 0.0 151.4 231.0
10:45 5.8 99.4 1019.7 1.5 ENE 6.1 E 0.0 150.4 224.4
10:50 5.7 99.2 1019.7 1.1 ENE 6.1 NE 0.0 149.4 233.1
10:55 5.7 99.0 1019.7 0.0 NNE 0.0 NNE 0.0 148.4 231.0
11:00 5.7 99.2 1019.7 0.9 NNE 6.1 NNE 0.0 147.7 249.9
11:05 5.8 99.1 1019.7 2.7 NE 6.1 NE 0.0 146.6 170.9
11:10 5.7 99.2 1019.6 2.7 NNE 6.1 NNE 0.0 145.8 215.5
11:15 5.8 99.2 1019.6 0.5 NNE 6.1 NNE 0.0 145.1 243.1
11:20 6.0 99.2 1019.5 1.1 ENE 6.1 E 0.0 144.3 279.7
11:25 6.2 99.2 1019.5 0.5 NNE 6.1 NNE 0.0 143.3 341.2
11:30 6.5 99.0 1019.4 1.1 NE 6.1 NNE 0.0 142.0 346.7
11:35 6.4 98.6 1019.3 2.7 NE 6.1 ENE 0.0 140.5 242.5
11:40 6.5 98.8 1019.2 1.9 NNE 6.1 NNE 0.0 139.5 249.2
11:45 6.5 98.6 1019.1 3.4 E 8.8 NE 0.0 138.5 193.6
11:50 6.3 98.6 1019.1 1.8 NE 6.1 ENE 0.0 137.6 234.9
11:55 6.3 98.9 1019.0 2.7 ENE 6.1 ENE 0.0 136.8 258.2
12:00 6.3 98.8 1018.9 4.1 ENE 6.1 E 0.0 135.9 340.2
12:05 6.5 99.0 1018.9 1.8 NE 8.8 NNE 0.0 134.9 343.2
12:10 6.6 98.6 1018.8 1.6 NE 6.1 NE 0.0 133.6 344.6
12:15 6.8 98.5 1018.7 1.4 NNE 6.1 NNE 0.0 132.4 389.4
12:20 7.1 98.4 1018.6 0.0 NNE 0.0 NNE 0.0 131.1 305.4
12:25 7.4 98.3 1018.5 0.0 NNE 0.0 NNE 0.0 129.9 359.1
12:30 7.6 98.1 1018.5 0.2 NNE 3.4 NNE 0.0 128.7 451.4
12:35 8.0 97.8 1018.5 0.0 NNE 0.0 NE 0.0 127.2 455.3
12:40 8.5 97.4 1018.4 0.0 NNE 0.0 NNE 0.0 125.5 480.7
12:45 8.9 95.5 1018.4 0.0 NNE 0.0 NE 0.0 123.4 447.9
12:50 9.0 91.3 1018.3 1.0 E 6.1 ENE 0.0 121.4 376.0
12:55 9.1 88.1 1018.3 0.1 ENE 3.4 ENE 0.0 119.9 376.8
13:00 9.3 84.3 1018.3 1.1 ENE 6.1 ENE 0.0 118.4 369.4
13:05 9.4 82.3 1018.3 2.0 E 6.1 ENE 0.0 117.0 378.7
13:10 9.6 81.3 1018.2 0.5 E 6.1 ENE 0.0 115.6 366.4
13:15 9.8 81.0 1018.1 0.7 ENE 6.1 ENE 0.0 114.4 401.9
13:20 10.1 80.3 1018.0 0.0 NNE 0.0 E 0.0 113.3 438.1
13:25 10.4 78.8 1017.9 0.0 NNE 0.0 ENE 0.0 112.0 442.3
13:30 10.5 77.8 1017.9 0.0 NNE 0.0 NE 0.0 110.5 437.3
13:35 10.6 76.7 1017.8 0.0 NNE 0.0 E 0.0 109.1 404.1
13:40 10.9 75.8 1017.8 0.0 NNE 0.0 NE 0.0 107.9 414.0
13:45 11.2 74.4 1017.8 0.0 NNE 0.0 E 0.0 106.7 416.2
13:50 11.3 71.5 1017.8 1.7 ENE 8.8 ENE 0.0 105.2 333.5
13:55 11.3 71.6 1017.7 0.1 ENE 6.1 E 0.0 104.0 374.2
14:00 11.5 70.3 1017.5 0.0 NNE 0.0 E 0.0 102.9 378.2
14:05 11.6 69.1 1017.5 0.0 NNE 0.0 E 0.0 101.7 399.2
14:10 11.7 67.7 1017.5 0.0 NNE 0.0 NE 0.0 100.4 391.2
14:15 11.8 66.8 1017.4 0.0 NNE 0.0 NE 0.0 99.1 335.1
14:20 11.8 67.0 1017.4 2.1 E 8.8 ENE 0.0 97.9 315.8
14:25 11.8 67.3 1017.4 5.4 E 8.8 E 0.0 97.0 390.4
14:30 11.9 66.7 1017.5 3.6 ENE 8.8 ENE 0.0 95.9 301.4
14:35 12.1 67.4 1017.5 0.7 ENE 6.1 ENE 0.0 94.9 325.2
14:40 12.1 65.2 1017.5 4.2 E 6.1 ENE 0.0 94.0 320.8
14:45 12.1 66.0 1017.4 3.4 E 6.1 E 0.0 92.8 276.4
14:50 12.2 66.9 1017.4 3.5 ENE 8.8 ENE 0.0 91.9 221.5
14:55 12.3 66.5 1017.5 3.7 ENE 6.1 ENE 0.0 91.2 247.8
15:00 12.3 65.9 1017.5 2.6 ENE 6.1 ENE 0.0 90.4 233.4
15:05 12.3 65.8 1017.6 2.9 ENE 6.1 E 0.0 89.8 301.2
15:10 12.5 65.7 1017.7 1.1 E 6.1 E 0.0 89.1 280.1
15:15 12.5 64.0 1017.6 0.4 E 6.1 E 0.0 88.1 254.4
15:20 12.6 64.7 1017.7 2.9 ENE 8.8 ENE 0.0 87.5 314.7
15:25 12.6 64.6 1017.6 3.0 ENE 8.8 E 0.0 86.8 334.5
15:30 12.8 64.6 1017.6 0.9 NE 6.1 ENE 0.0 85.9 306.4
15:35 12.9 64.8 1017.6 3.1 ENE 8.8 ENE 0.0 85.0 282.9
15:40 12.9 64.2 1017.7 0.7 NE 6.1 ENE 0.0 84.0 245.1
15:45 12.9 64.4 1017.7 1.4 NE 6.1 NE 0.0 83.1 207.7
15:50 12.8 64.9 1017.7 3.4 NE 8.8 ENE 0.0 82.0 124.2
15:55 12.6 64.8 1017.7 2.8 NE 8.8 NNE 0.0 81.2 105.5
16:00 12.5 66.2 1017.7 1.5 NE 6.1 NE 0.0 80.8 95.8
16:05 12.5 72.5 1017.8 0.0 NNE 0.0 WNW 0.0 80.8 87.5
16:10 12.1 75.0 1017.8 0.0 NNE 0.0 WNW 0.0 80.7 77.5
16:15 11.9 73.3 1017.8 0.3 W 3.4 WNW 0.0 80.7 66.1
16:20 11.5 78.1 1017.9 0.0 NNE 0.0 W 0.0 80.7 50.0
16:25 11.0 79.7 1017.9 0.0 NNE 0.0 WSW 0.0 80.8 38.6
16:30 10.7 82.4 1017.9 0.0 NNE 0.0 WNW 0.0 81.1 31.0
16:35 10.1 84.4 1017.9 0.0 NNE 0.0 W 0.0 81.4 26.0
16:40 9.8 85.2 1018.0 0.0 NNE 0.0 W 0.0 81.8 25.2
16:45 9.4 86.3 1018.1 0.0 NNE 0.0 WSW 0.0 82.1 23.1
16:50 9.1 88.3 1018.2 0.0 NNE 0.0 SW 0.0 82.6 16.1
16:55 8.8 89.5 1018.2 0.0 NNE 0.0 WSW 0.0 83.1 9.7
17:00 8.5 90.3 1018.2 0.0 NNE 0.0 WSW 0.0 83.5 5.0
17:05 8.2 90.5 1018.2 0.0 NNE 0.0 SW 0.0 83.9 2.1
17:10 8.0 90.9 1018.3 0.0 NNE 0.0 SW 0.0 84.3 0.7
17:15 7.8 91.5 1018.4 0.0 NNE 0.0 WSW 0.0 84.8 0.2
17:20 7.7 91.8 1018.4 0.0 NNE 0.0 WSW 0.0 85.3 0.0
17:25 7.5 92.1 1018.5 0.0 NNE 0.0 WSW 0.0 85.7 0.0
17:30 7.4 92.4 1018.6 0.0 NNE 0.0 WSW 0.0 86.2 0.0
17:35 7.2 92.8 1018.6 0.0 NNE 0.0 WSW 0.0 86.6 0.0
17:40 7.1 93.1 1018.6 0.0 NNE 0.0 WSW 0.0 87.0 0.0
17:45 6.9 93.5 1018.7 0.0 NNE 0.0 WSW 0.0 87.5 0.0
17:50 6.8 93.9 1018.7 0.0 NNE 0.0 WSW 0.0 88.0 0.0
17:55 6.6 94.3 1018.7 0.0 NNE 0.0 WSW 0.0 88.5 0.0
18:00 6.6 94.6 1018.7 0.0 NNE 0.0 WSW 0.0 89.0 0.0
18:05 6.4 95.0 1018.7 0.0 NNE 0.0 SW 0.0 89.5 0.0
18:10 6.4 95.2 1018.7 0.0 NNE 0.0 WSW 0.0 90.0 0.0
18:15 6.3 95.4 1018.7 0.0 NNE 0.0 WSW 0.0 90.5 0.0
18:20 6.3 95.4 1018.7 0.0 NNE 0.0 WSW 0.0 91.0 0.0
18:25 6.2 95.4 1018.6 0.0 NNE 0.0 WSW 0.0 91.5 0.0
18:30 6.1 95.5 1018.6 0.0 NNE 0.0 WSW 0.0 91.9 0.0
18:35 6.0 95.7 1018.7 0.0 NNE 0.0 WSW 0.0 92.4 0.0
18:40 6.0 95.9 1018.7 1.2 NNE 6.1 NNE 0.0 92.7 0.0
18:45 5.9 96.0 1018.7 0.0 NNE 0.0 SSW 0.0 93.2 0.0
18:50 5.9 96.4 1018.8 0.0 NNE 0.0 SW 0.0 93.8 0.0
18:55 5.8 96.4 1018.9 0.0 NNE 0.0 SW 0.0 94.3 0.0
19:00 5.8 96.7 1019.0 0.0 NNE 0.0 WSW 0.0 94.8 0.0
19:05 5.8 96.9 1019.0 0.0 NNE 0.0 WSW 0.0 95.3 0.0
19:10 5.8 97.1 1019.1 0.0 NNE 0.0 WSW 0.0 95.9 0.0
19:15 5.7 96.9 1019.1 0.0 NNE 0.0 WSW 0.0 96.2 0.0
19:20 5.6 97.1 1019.1 0.0 NNE 0.0 SW 0.0 96.7 0.0
19:25 5.6 97.2 1019.1 0.0 NNE 0.0 WSW 0.0 97.1 0.0
19:30 5.6 97.4 1019.1 0.0 NNE 0.0 WSW 0.0 97.6 0.0
19:35 5.6 97.4 1019.2 0.0 NNE 0.0 SW 0.0 98.0 0.0
19:40 5.6 97.4 1019.3 0.3 W 3.4 W 0.0 98.5 0.0
19:45 5.5 97.5 1019.3 0.5 WSW 6.1 WSW 0.0 98.9 0.0
19:50 5.5 97.6 1019.3 0.6 WSW 3.4 W 0.0 99.4 0.0
19:55 5.6 97.8 1019.2 0.6 W 6.1 WSW 0.0 99.9 0.0
20:00 5.6 97.9 1019.3 1.6 SW 6.1 SW 0.0 100.3 0.0
20:05 5.7 98.0 1019.4 0.0 NNE 0.0 WSW 0.0 100.8 0.0
20:10 5.8 98.0 1019.4 0.0 NNE 0.0 WSW 0.0 101.2 0.0
20:15 5.8 98.0 1019.4 0.0 NNE 0.0 WSW 0.0 101.6 0.0
20:20 5.8 98.1 1019.5 0.0 NNE 0.0 WSW 0.0 102.0 0.0
20:25 6.0 98.2 1019.4 0.0 NNE 0.0 WSW 0.0 102.5 0.0
20:30 6.1 98.2 1019.5 0.0 NNE 0.0 WSW 0.0 102.8 0.0
20:35 6.3 98.2 1019.5 0.0 NNE 0.0 SW 0.0 103.2 0.0
20:40 6.4 98.2 1019.4 0.0 NNE 0.0 SW 0.0 103.5 0.0
20:45 6.6 98.1 1019.4 0.0 NNE 0.0 SW 0.0 103.7 0.0
20:50 6.7 98.0 1019.3 0.0 NNE 0.0 SW 0.0 104.0 0.0
20:55 6.8 97.9 1019.2 0.0 NNE 0.0 SW 0.0 104.2 0.0
21:00 6.9 97.9 1019.2 0.0 NNE 0.0 SW 0.0 104.4 0.0
21:05 7.0 97.8 1019.2 0.0 NNE 0.0 SW 0.0 104.6 0.0
21:10 7.0 97.7 1019.2 0.0 NNE 0.0 SW 0.0 104.8 0.0
21:15 7.2 97.7 1019.2 0.0 NNE 0.0 SW 0.0 105.1 0.0
21:20 7.3 97.6 1019.2 0.0 NNE 0.0 SW 0.0 105.2 0.0
21:25 7.3 97.4 1019.2 0.5 NNE 6.1 NE 0.0 105.4 0.0
Màxima 12.9 100.0 1019.8 5.4 E 8.8 NNE 0.1 160.3 480.7
Mínima 0.7 64.0 1016.6 80.7
Total 0.1